sensor_id;sensor_type;location;lat;lon;timestamp;P1;durP1;ratioP1;P2;durP2;ratioP2
34737;SDS011;39910;47.154;27.614;2023-05-16T00:00:17;11.90;;;11.30;;
34737;SDS011;39910;47.154;27.614;2023-05-16T00:02:43;11.98;;;11.38;;
34737;SDS011;39910;47.154;27.614;2023-05-16T00:05:08;12.50;;;11.90;;
34737;SDS011;39910;47.154;27.614;2023-05-16T00:07:38;11.82;;;11.23;;
34737;SDS011;39910;47.154;27.614;2023-05-16T00:10:04;12.02;;;11.43;;
34737;SDS011;39910;47.154;27.614;2023-05-16T00:12:29;12.65;;;12.05;;
34737;SDS011;39910;47.154;27.614;2023-05-16T00:14:54;13.52;;;12.77;;
34737;SDS011;39910;47.154;27.614;2023-05-16T00:17:21;12.85;;;12.15;;
34737;SDS011;39910;47.154;27.614;2023-05-16T00:19:47;12.40;;;11.80;;
34737;SDS011;39910;47.154;27.614;2023-05-16T00:22:14;12.30;;;11.70;;
34737;SDS011;39910;47.154;27.614;2023-05-16T00:24:39;12.30;;;11.70;;
34737;SDS011;39910;47.154;27.614;2023-05-16T00:27:05;13.55;;;12.85;;
34737;SDS011;39910;47.154;27.614;2023-05-16T00:29:30;12.80;;;12.15;;
34737;SDS011;39910;47.154;27.614;2023-05-16T00:31:56;11.68;;;11.10;;
34737;SDS011;39910;47.154;27.614;2023-05-16T00:34:21;11.95;;;11.35;;
34737;SDS011;39910;47.154;27.614;2023-05-16T00:36:48;11.80;;;11.20;;
34737;SDS011;39910;47.154;27.614;2023-05-16T00:39:13;12.18;;;11.57;;
34737;SDS011;39910;47.154;27.614;2023-05-16T00:41:39;12.30;;;11.70;;
34737;SDS011;39910;47.154;27.614;2023-05-16T00:44:04;12.60;;;12.00;;
34737;SDS011;39910;47.154;27.614;2023-05-16T00:46:30;12.25;;;11.65;;
34737;SDS011;39910;47.154;27.614;2023-05-16T00:48:56;12.30;;;11.70;;
34737;SDS011;39910;47.154;27.614;2023-05-16T00:51:21;12.40;;;11.80;;
34737;SDS011;39910;47.154;27.614;2023-05-16T00:53:47;12.48;;;11.88;;
34737;SDS011;39910;47.154;27.614;2023-05-16T00:56:12;12.30;;;11.70;;
34737;SDS011;39910;47.154;27.614;2023-05-16T00:58:37;11.38;;;10.88;;
34737;SDS011;39910;47.154;27.614;2023-05-16T01:01:03;11.90;;;11.25;;
34737;SDS011;39910;47.154;27.614;2023-05-16T01:03:29;12.32;;;11.73;;
34737;SDS011;39910;47.154;27.614;2023-05-16T01:05:54;11.88;;;11.27;;
34737;SDS011;39910;47.154;27.614;2023-05-16T01:08:20;12.27;;;11.68;;
34737;SDS011;39910;47.154;27.614;2023-05-16T01:13:26;12.20;;;11.60;;
34737;SDS011;39910;47.154;27.614;2023-05-16T01:16:04;11.90;;;11.30;;
34737;SDS011;39910;47.154;27.614;2023-05-16T01:20:58;11.75;;;11.18;;
34737;SDS011;39910;47.154;27.614;2023-05-16T01:28:34;11.90;;;11.30;;
34737;SDS011;39910;47.154;27.614;2023-05-16T01:31:00;11.68;;;11.18;;
34737;SDS011;39910;47.154;27.614;2023-05-16T01:33:26;11.88;;;11.27;;
34737;SDS011;39910;47.154;27.614;2023-05-16T01:36:11;12.20;;;11.60;;
34737;SDS011;39910;47.154;27.614;2023-05-16T01:38:39;12.02;;;11.43;;
34737;SDS011;39910;47.154;27.614;2023-05-16T01:41:18;11.65;;;11.13;;
34737;SDS011;39910;47.154;27.614;2023-05-16T01:43:46;11.75;;;11.18;;
34737;SDS011;39910;47.154;27.614;2023-05-16T01:46:19;11.52;;;11.02;;
34737;SDS011;39910;47.154;27.614;2023-05-16T01:51:23;13.20;;;12.50;;
34737;SDS011;39910;47.154;27.614;2023-05-16T01:53:51;12.57;;;11.98;;
34737;SDS011;39910;47.154;27.614;2023-05-16T01:56:17;11.45;;;10.95;;
34737;SDS011;39910;47.154;27.614;2023-05-16T01:58:43;12.80;;;12.15;;
34737;SDS011;39910;47.154;27.614;2023-05-16T02:01:11;11.75;;;11.15;;
34737;SDS011;39910;47.154;27.614;2023-05-16T02:03:37;11.93;;;11.32;;
34737;SDS011;39910;47.154;27.614;2023-05-16T02:06:02;11.90;;;11.30;;
34737;SDS011;39910;47.154;27.614;2023-05-16T02:08:28;11.70;;;11.10;;
34737;SDS011;39910;47.154;27.614;2023-05-16T02:10:54;11.98;;;11.38;;
34737;SDS011;39910;47.154;27.614;2023-05-16T02:13:19;11.90;;;11.30;;
34737;SDS011;39910;47.154;27.614;2023-05-16T02:15:45;12.95;;;12.27;;
34737;SDS011;39910;47.154;27.614;2023-05-16T02:18:10;12.30;;;11.70;;
34737;SDS011;39910;47.154;27.614;2023-05-16T02:20:36;12.65;;;12.05;;
34737;SDS011;39910;47.154;27.614;2023-05-16T02:23:01;12.15;;;11.55;;
34737;SDS011;39910;47.154;27.614;2023-05-16T02:25:27;12.85;;;12.15;;
34737;SDS011;39910;47.154;27.614;2023-05-16T02:27:52;11.90;;;11.30;;
34737;SDS011;39910;47.154;27.614;2023-05-16T02:30:18;11.68;;;11.13;;
34737;SDS011;39910;47.154;27.614;2023-05-16T02:32:43;12.45;;;11.85;;
34737;SDS011;39910;47.154;27.614;2023-05-16T02:35:09;11.43;;;10.93;;
34737;SDS011;39910;47.154;27.614;2023-05-16T02:37:34;12.23;;;11.63;;
34737;SDS011;39910;47.154;27.614;2023-05-16T02:40:00;12.38;;;11.77;;
34737;SDS011;39910;47.154;27.614;2023-05-16T02:42:26;12.27;;;11.68;;
34737;SDS011;39910;47.154;27.614;2023-05-16T02:44:53;12.00;;;11.40;;
34737;SDS011;39910;47.154;27.614;2023-05-16T02:47:19;12.02;;;11.43;;
34737;SDS011;39910;47.154;27.614;2023-05-16T02:49:44;12.00;;;11.40;;
34737;SDS011;39910;47.154;27.614;2023-05-16T02:52:10;12.00;;;11.40;;
34737;SDS011;39910;47.154;27.614;2023-05-16T02:54:35;12.27;;;11.68;;
34737;SDS011;39910;47.154;27.614;2023-05-16T02:57:01;11.70;;;11.18;;
34737;SDS011;39910;47.154;27.614;2023-05-16T02:59:26;11.88;;;11.27;;
34737;SDS011;39910;47.154;27.614;2023-05-16T03:01:51;11.50;;;11.00;;
34737;SDS011;39910;47.154;27.614;2023-05-16T03:04:17;11.80;;;11.20;;
34737;SDS011;39910;47.154;27.614;2023-05-16T03:06:42;12.30;;;11.70;;
34737;SDS011;39910;47.154;27.614;2023-05-16T03:09:07;11.73;;;11.13;;
34737;SDS011;39910;47.154;27.614;2023-05-16T03:11:33;12.35;;;11.75;;
34737;SDS011;39910;47.154;27.614;2023-05-16T03:13:58;12.25;;;11.65;;
34737;SDS011;39910;47.154;27.614;2023-05-16T03:16:24;12.00;;;11.40;;
34737;SDS011;39910;47.154;27.614;2023-05-16T03:18:49;12.27;;;11.68;;
34737;SDS011;39910;47.154;27.614;2023-05-16T03:21:15;11.98;;;11.38;;
34737;SDS011;39910;47.154;27.614;2023-05-16T03:23:40;11.95;;;11.35;;
34737;SDS011;39910;47.154;27.614;2023-05-16T03:26:05;12.10;;;11.50;;
34737;SDS011;39910;47.154;27.614;2023-05-16T03:28:31;12.30;;;11.70;;
34737;SDS011;39910;47.154;27.614;2023-05-16T03:30:56;11.52;;;11.02;;
34737;SDS011;39910;47.154;27.614;2023-05-16T03:33:22;12.70;;;12.00;;
34737;SDS011;39910;47.154;27.614;2023-05-16T03:35:48;12.48;;;11.85;;
34737;SDS011;39910;47.154;27.614;2023-05-16T03:38:13;12.27;;;11.68;;
34737;SDS011;39910;47.154;27.614;2023-05-16T03:40:39;12.63;;;12.02;;
34737;SDS011;39910;47.154;27.614;2023-05-16T03:43:05;11.93;;;11.32;;
34737;SDS011;39910;47.154;27.614;2023-05-16T03:45:30;12.93;;;12.23;;
34737;SDS011;39910;47.154;27.614;2023-05-16T03:47:56;11.93;;;11.32;;
34737;SDS011;39910;47.154;27.614;2023-05-16T03:50:21;12.00;;;11.40;;
34737;SDS011;39910;47.154;27.614;2023-05-16T03:52:47;11.40;;;10.90;;
34737;SDS011;39910;47.154;27.614;2023-05-16T03:55:12;12.02;;;11.43;;
34737;SDS011;39910;47.154;27.614;2023-05-16T03:57:39;11.80;;;11.23;;
34737;SDS011;39910;47.154;27.614;2023-05-16T04:00:06;12.55;;;11.95;;
34737;SDS011;39910;47.154;27.614;2023-05-16T04:02:32;12.77;;;12.15;;
34737;SDS011;39910;47.154;27.614;2023-05-16T04:04:57;11.90;;;11.30;;
34737;SDS011;39910;47.154;27.614;2023-05-16T04:07:22;12.75;;;12.13;;
34737;SDS011;39910;47.154;27.614;2023-05-16T04:09:48;12.02;;;11.43;;
34737;SDS011;39910;47.154;27.614;2023-05-16T04:12:13;12.48;;;11.88;;
34737;SDS011;39910;47.154;27.614;2023-05-16T04:14:38;12.30;;;11.70;;
34737;SDS011;39910;47.154;27.614;2023-05-16T04:17:04;12.82;;;12.13;;
34737;SDS011;39910;47.154;27.614;2023-05-16T04:19:29;12.93;;;12.23;;
34737;SDS011;39910;47.154;27.614;2023-05-16T04:21:55;12.15;;;11.55;;
34737;SDS011;39910;47.154;27.614;2023-05-16T04:24:20;11.90;;;11.30;;
34737;SDS011;39910;47.154;27.614;2023-05-16T04:26:50;12.18;;;11.57;;
34737;SDS011;39910;47.154;27.614;2023-05-16T04:29:16;11.85;;;11.25;;
34737;SDS011;39910;47.154;27.614;2023-05-16T04:31:41;13.38;;;12.68;;
34737;SDS011;39910;47.154;27.614;2023-05-16T04:34:06;12.30;;;11.70;;
34737;SDS011;39910;47.154;27.614;2023-05-16T04:36:31;13.40;;;12.70;;
34737;SDS011;39910;47.154;27.614;2023-05-16T04:38:59;12.15;;;11.55;;
34737;SDS011;39910;47.154;27.614;2023-05-16T04:41:24;11.95;;;11.35;;
34737;SDS011;39910;47.154;27.614;2023-05-16T04:43:50;12.40;;;11.80;;
34737;SDS011;39910;47.154;27.614;2023-05-16T04:46:15;11.93;;;11.32;;
34737;SDS011;39910;47.154;27.614;2023-05-16T04:48:41;12.57;;;11.95;;
34737;SDS011;39910;47.154;27.614;2023-05-16T04:51:06;12.25;;;11.65;;
34737;SDS011;39910;47.154;27.614;2023-05-16T04:53:31;12.07;;;11.48;;
34737;SDS011;39910;47.154;27.614;2023-05-16T04:55:57;12.65;;;12.05;;
34737;SDS011;39910;47.154;27.614;2023-05-16T04:58:22;12.35;;;11.75;;
34737;SDS011;39910;47.154;27.614;2023-05-16T05:00:48;12.20;;;11.60;;
34737;SDS011;39910;47.154;27.614;2023-05-16T05:03:16;12.50;;;11.90;;
34737;SDS011;39910;47.154;27.614;2023-05-16T05:05:42;13.75;;;13.05;;
34737;SDS011;39910;47.154;27.614;2023-05-16T05:08:07;12.38;;;11.77;;
34737;SDS011;39910;47.154;27.614;2023-05-16T05:10:33;12.30;;;11.70;;
34737;SDS011;39910;47.154;27.614;2023-05-16T05:13:00;11.60;;;11.05;;
34737;SDS011;39910;47.154;27.614;2023-05-16T05:15:25;12.25;;;11.65;;
34737;SDS011;39910;47.154;27.614;2023-05-16T05:17:50;13.13;;;12.43;;
34737;SDS011;39910;47.154;27.614;2023-05-16T05:20:16;12.60;;;12.00;;
34737;SDS011;39910;47.154;27.614;2023-05-16T05:22:41;12.13;;;11.52;;
34737;SDS011;39910;47.154;27.614;2023-05-16T05:25:06;12.30;;;11.70;;
34737;SDS011;39910;47.154;27.614;2023-05-16T05:27:32;12.23;;;11.63;;
34737;SDS011;39910;47.154;27.614;2023-05-16T05:29:57;13.48;;;12.77;;
34737;SDS011;39910;47.154;27.614;2023-05-16T05:32:23;13.23;;;12.52;;
34737;SDS011;39910;47.154;27.614;2023-05-16T05:34:48;13.30;;;12.60;;
34737;SDS011;39910;47.154;27.614;2023-05-16T05:37:13;12.77;;;12.15;;
34737;SDS011;39910;47.154;27.614;2023-05-16T05:39:39;12.88;;;12.20;;
34737;SDS011;39910;47.154;27.614;2023-05-16T05:42:04;13.38;;;12.68;;
34737;SDS011;39910;47.154;27.614;2023-05-16T05:44:29;12.75;;;12.15;;
34737;SDS011;39910;47.154;27.614;2023-05-16T05:46:55;12.90;;;12.27;;
34737;SDS011;39910;47.154;27.614;2023-05-16T05:49:22;15.50;;;14.60;;
34737;SDS011;39910;47.154;27.614;2023-05-16T05:51:47;14.52;;;13.73;;
34737;SDS011;39910;47.154;27.614;2023-05-16T05:54:15;13.38;;;12.68;;
34737;SDS011;39910;47.154;27.614;2023-05-16T05:56:41;13.85;;;13.15;;
34737;SDS011;39910;47.154;27.614;2023-05-16T05:59:06;13.27;;;12.57;;
34737;SDS011;39910;47.154;27.614;2023-05-16T06:01:31;13.93;;;13.23;;
34737;SDS011;39910;47.154;27.614;2023-05-16T06:03:57;12.90;;;12.30;;
34737;SDS011;39910;47.154;27.614;2023-05-16T06:06:22;13.40;;;12.70;;
34737;SDS011;39910;47.154;27.614;2023-05-16T06:08:47;13.55;;;12.85;;
34737;SDS011;39910;47.154;27.614;2023-05-16T06:11:13;13.45;;;12.75;;
34737;SDS011;39910;47.154;27.614;2023-05-16T06:13:38;13.27;;;12.65;;
34737;SDS011;39910;47.154;27.614;2023-05-16T06:16:04;13.45;;;12.82;;
34737;SDS011;39910;47.154;27.614;2023-05-16T06:18:29;13.80;;;13.10;;
34737;SDS011;39910;47.154;27.614;2023-05-16T06:20:55;13.77;;;13.18;;
34737;SDS011;39910;47.154;27.614;2023-05-16T06:23:20;13.00;;;12.40;;
34737;SDS011;39910;47.154;27.614;2023-05-16T06:25:45;13.30;;;12.70;;
34737;SDS011;39910;47.154;27.614;2023-05-16T06:28:11;12.90;;;12.30;;
34737;SDS011;39910;47.154;27.614;2023-05-16T06:30:36;13.27;;;12.68;;
34737;SDS011;39910;47.154;27.614;2023-05-16T06:33:02;12.43;;;11.88;;
34737;SDS011;39910;47.154;27.614;2023-05-16T06:35:27;12.93;;;12.33;;
34737;SDS011;39910;47.154;27.614;2023-05-16T06:37:53;12.68;;;12.07;;
34737;SDS011;39910;47.154;27.614;2023-05-16T06:40:18;12.82;;;12.23;;
34737;SDS011;39910;47.154;27.614;2023-05-16T06:42:43;12.65;;;12.05;;
34737;SDS011;39910;47.154;27.614;2023-05-16T06:45:09;13.07;;;12.47;;
34737;SDS011;39910;47.154;27.614;2023-05-16T06:47:35;13.27;;;12.68;;
34737;SDS011;39910;47.154;27.614;2023-05-16T06:50:00;12.70;;;12.10;;
34737;SDS011;39910;47.154;27.614;2023-05-16T06:52:26;12.70;;;12.10;;
34737;SDS011;39910;47.154;27.614;2023-05-16T06:54:51;12.88;;;12.27;;
34737;SDS011;39910;47.154;27.614;2023-05-16T06:57:16;12.80;;;12.20;;
34737;SDS011;39910;47.154;27.614;2023-05-16T06:59:42;13.02;;;12.43;;
34737;SDS011;39910;47.154;27.614;2023-05-16T07:02:07;13.25;;;12.65;;
34737;SDS011;39910;47.154;27.614;2023-05-16T07:04:32;13.47;;;12.83;;
34737;SDS011;39910;47.154;27.614;2023-05-16T07:07:00;13.82;;;13.13;;
34737;SDS011;39910;47.154;27.614;2023-05-16T07:09:25;13.25;;;12.63;;
34737;SDS011;39910;47.154;27.614;2023-05-16T07:11:51;14.15;;;13.45;;
34737;SDS011;39910;47.154;27.614;2023-05-16T07:14:16;13.95;;;13.25;;
34737;SDS011;39910;47.154;27.614;2023-05-16T07:16:41;13.88;;;13.18;;
34737;SDS011;39910;47.154;27.614;2023-05-16T07:19:07;14.10;;;13.40;;
34737;SDS011;39910;47.154;27.614;2023-05-16T07:21:32;14.02;;;13.32;;
34737;SDS011;39910;47.154;27.614;2023-05-16T07:23:57;13.40;;;12.75;;
34737;SDS011;39910;47.154;27.614;2023-05-16T07:26:23;13.70;;;13.00;;
34737;SDS011;39910;47.154;27.614;2023-05-16T07:28:50;13.60;;;12.90;;
34737;SDS011;39910;47.154;27.614;2023-05-16T07:31:16;13.05;;;12.45;;
34737;SDS011;39910;47.154;27.614;2023-05-16T07:33:43;13.13;;;12.52;;
34737;SDS011;39910;47.154;27.614;2023-05-16T07:36:09;14.10;;;13.40;;
34737;SDS011;39910;47.154;27.614;2023-05-16T07:38:34;13.02;;;12.43;;
34737;SDS011;39910;47.154;27.614;2023-05-16T07:41:00;13.20;;;12.60;;
34737;SDS011;39910;47.154;27.614;2023-05-16T07:43:25;12.98;;;12.38;;
34737;SDS011;39910;47.154;27.614;2023-05-16T07:45:50;13.05;;;12.45;;
34737;SDS011;39910;47.154;27.614;2023-05-16T07:48:16;13.68;;;13.07;;
34737;SDS011;39910;47.154;27.614;2023-05-16T07:50:41;13.43;;;12.82;;
34737;SDS011;39910;47.154;27.614;2023-05-16T07:53:07;13.40;;;12.80;;
34737;SDS011;39910;47.154;27.614;2023-05-16T07:55:32;13.10;;;12.50;;
34737;SDS011;39910;47.154;27.614;2023-05-16T07:57:58;12.75;;;12.15;;
34737;SDS011;39910;47.154;27.614;2023-05-16T08:00:23;12.65;;;12.05;;
34737;SDS011;39910;47.154;27.614;2023-05-16T08:02:48;13.13;;;12.52;;
34737;SDS011;39910;47.154;27.614;2023-05-16T08:05:14;13.15;;;12.55;;
34737;SDS011;39910;47.154;27.614;2023-05-16T08:07:39;13.77;;;13.07;;
34737;SDS011;39910;47.154;27.614;2023-05-16T08:10:05;13.23;;;12.63;;
34737;SDS011;39910;47.154;27.614;2023-05-16T08:12:30;13.18;;;12.57;;
34737;SDS011;39910;47.154;27.614;2023-05-16T08:14:55;12.43;;;11.82;;
34737;SDS011;39910;47.154;27.614;2023-05-16T08:17:21;13.40;;;12.80;;
34737;SDS011;39910;47.154;27.614;2023-05-16T08:19:46;13.75;;;13.05;;
34737;SDS011;39910;47.154;27.614;2023-05-16T08:22:11;12.82;;;12.23;;
34737;SDS011;39910;47.154;27.614;2023-05-16T08:24:37;13.30;;;12.70;;
34737;SDS011;39910;47.154;27.614;2023-05-16T08:27:02;13.07;;;12.48;;
34737;SDS011;39910;47.154;27.614;2023-05-16T08:29:27;13.10;;;12.50;;
34737;SDS011;39910;47.154;27.614;2023-05-16T08:31:53;13.05;;;12.45;;
34737;SDS011;39910;47.154;27.614;2023-05-16T08:34:18;13.13;;;12.52;;
34737;SDS011;39910;47.154;27.614;2023-05-16T08:36:43;13.23;;;12.63;;
34737;SDS011;39910;47.154;27.614;2023-05-16T08:39:09;13.70;;;13.00;;
34737;SDS011;39910;47.154;27.614;2023-05-16T08:41:37;13.85;;;13.15;;
34737;SDS011;39910;47.154;27.614;2023-05-16T08:44:05;13.82;;;13.13;;
34737;SDS011;39910;47.154;27.614;2023-05-16T08:46:31;13.80;;;13.13;;
34737;SDS011;39910;47.154;27.614;2023-05-16T08:48:57;12.85;;;12.25;;
34737;SDS011;39910;47.154;27.614;2023-05-16T08:51:23;13.23;;;12.63;;
34737;SDS011;39910;47.154;27.614;2023-05-16T08:53:51;12.40;;;11.80;;
34737;SDS011;39910;47.154;27.614;2023-05-16T08:56:18;12.25;;;11.68;;
34737;SDS011;39910;47.154;27.614;2023-05-16T08:58:46;12.45;;;11.85;;
34737;SDS011;39910;47.154;27.614;2023-05-16T09:01:11;12.60;;;12.00;;
34737;SDS011;39910;47.154;27.614;2023-05-16T09:03:37;12.85;;;12.25;;
34737;SDS011;39910;47.154;27.614;2023-05-16T09:06:06;12.90;;;12.30;;
34737;SDS011;39910;47.154;27.614;2023-05-16T09:08:31;12.65;;;12.05;;
34737;SDS011;39910;47.154;27.614;2023-05-16T09:10:56;12.60;;;12.00;;
34737;SDS011;39910;47.154;27.614;2023-05-16T09:13:23;13.10;;;12.50;;
34737;SDS011;39910;47.154;27.614;2023-05-16T09:16:06;12.95;;;12.35;;
34737;SDS011;39910;47.154;27.614;2023-05-16T09:18:32;13.60;;;12.90;;
34737;SDS011;39910;47.154;27.614;2023-05-16T09:20:58;13.13;;;12.52;;
34737;SDS011;39910;47.154;27.614;2023-05-16T09:23:23;12.85;;;12.25;;
34737;SDS011;39910;47.154;27.614;2023-05-16T09:25:51;13.50;;;12.82;;
34737;SDS011;39910;47.154;27.614;2023-05-16T09:28:16;13.25;;;12.65;;
34737;SDS011;39910;47.154;27.614;2023-05-16T09:30:43;12.52;;;11.93;;
34737;SDS011;39910;47.154;27.614;2023-05-16T09:33:10;12.60;;;12.00;;
34737;SDS011;39910;47.154;27.614;2023-05-16T09:35:36;12.20;;;11.60;;
34737;SDS011;39910;47.154;27.614;2023-05-16T09:38:01;12.35;;;11.75;;
34737;SDS011;39910;47.154;27.614;2023-05-16T09:40:26;12.98;;;12.38;;
34737;SDS011;39910;47.154;27.614;2023-05-16T09:45:26;13.23;;;12.63;;
34737;SDS011;39910;47.154;27.614;2023-05-16T09:47:51;13.10;;;12.50;;
34737;SDS011;39910;47.154;27.614;2023-05-16T09:50:16;13.50;;;12.80;;
34737;SDS011;39910;47.154;27.614;2023-05-16T09:52:42;13.65;;;12.95;;
34737;SDS011;39910;47.154;27.614;2023-05-16T09:55:08;14.90;;;14.13;;
34737;SDS011;39910;47.154;27.614;2023-05-16T09:57:37;13.65;;;12.95;;
34737;SDS011;39910;47.154;27.614;2023-05-16T10:00:05;13.02;;;12.43;;
34737;SDS011;39910;47.154;27.614;2023-05-16T10:02:32;13.88;;;13.18;;
34737;SDS011;39910;47.154;27.614;2023-05-16T10:04:57;13.95;;;13.25;;
34737;SDS011;39910;47.154;27.614;2023-05-16T10:07:23;13.95;;;13.25;;
34737;SDS011;39910;47.154;27.614;2023-05-16T10:09:49;13.60;;;12.90;;
34737;SDS011;39910;47.154;27.614;2023-05-16T10:12:15;13.77;;;13.07;;
34737;SDS011;39910;47.154;27.614;2023-05-16T10:14:40;13.77;;;13.07;;
34737;SDS011;39910;47.154;27.614;2023-05-16T10:17:06;13.02;;;12.43;;
34737;SDS011;39910;47.154;27.614;2023-05-16T10:19:33;13.10;;;12.50;;
34737;SDS011;39910;47.154;27.614;2023-05-16T10:22:01;12.73;;;12.13;;
34737;SDS011;39910;47.154;27.614;2023-05-16T10:24:30;13.55;;;12.90;;
34737;SDS011;39910;47.154;27.614;2023-05-16T10:26:57;13.82;;;13.13;;
34737;SDS011;39910;47.154;27.614;2023-05-16T10:29:22;13.60;;;12.90;;
34737;SDS011;39910;47.154;27.614;2023-05-16T10:31:48;13.32;;;12.65;;
34737;SDS011;39910;47.154;27.614;2023-05-16T10:34:14;13.45;;;12.75;;
34737;SDS011;39910;47.154;27.614;2023-05-16T10:36:40;13.85;;;13.15;;
34737;SDS011;39910;47.154;27.614;2023-05-16T10:39:05;13.77;;;13.07;;
34737;SDS011;39910;47.154;27.614;2023-05-16T10:41:31;13.98;;;13.27;;
34737;SDS011;39910;47.154;27.614;2023-05-16T10:43:58;14.55;;;13.82;;
34737;SDS011;39910;47.154;27.614;2023-05-16T10:46:25;14.25;;;13.55;;
34737;SDS011;39910;47.154;27.614;2023-05-16T10:48:50;13.95;;;13.25;;
34737;SDS011;39910;47.154;27.614;2023-05-16T10:53:47;14.02;;;13.32;;
34737;SDS011;39910;47.154;27.614;2023-05-16T10:56:15;14.07;;;13.38;;
34737;SDS011;39910;47.154;27.614;2023-05-16T10:58:46;13.77;;;13.07;;
34737;SDS011;39910;47.154;27.614;2023-05-16T11:03:59;13.88;;;13.18;;
34737;SDS011;39910;47.154;27.614;2023-05-16T11:09:05;13.18;;;12.55;;
34737;SDS011;39910;47.154;27.614;2023-05-16T11:14:16;13.07;;;12.48;;
34737;SDS011;39910;47.154;27.614;2023-05-16T11:16:44;12.77;;;12.18;;
34737;SDS011;39910;47.154;27.614;2023-05-16T11:19:12;12.45;;;11.85;;
34737;SDS011;39910;47.154;27.614;2023-05-16T11:24:27;12.40;;;11.80;;
34737;SDS011;39910;47.154;27.614;2023-05-16T11:26:54;13.07;;;12.48;;
34737;SDS011;39910;47.154;27.614;2023-05-16T11:29:19;13.10;;;12.50;;
34737;SDS011;39910;47.154;27.614;2023-05-16T11:31:44;12.80;;;12.20;;
34737;SDS011;39910;47.154;27.614;2023-05-16T11:34:10;12.80;;;12.20;;
34737;SDS011;39910;47.154;27.614;2023-05-16T11:36:37;12.90;;;12.30;;
34737;SDS011;39910;47.154;27.614;2023-05-16T11:39:08;13.70;;;13.00;;
34737;SDS011;39910;47.154;27.614;2023-05-16T11:41:34;13.90;;;13.20;;
34737;SDS011;39910;47.154;27.614;2023-05-16T11:43:59;13.82;;;13.13;;
34737;SDS011;39910;47.154;27.614;2023-05-16T11:46:25;14.13;;;13.43;;
34737;SDS011;39910;47.154;27.614;2023-05-16T11:48:51;13.07;;;12.48;;
34737;SDS011;39910;47.154;27.614;2023-05-16T11:51:17;12.80;;;12.20;;
34737;SDS011;39910;47.154;27.614;2023-05-16T11:53:43;14.27;;;13.57;;
34737;SDS011;39910;47.154;27.614;2023-05-16T11:56:09;12.57;;;11.98;;
34737;SDS011;39910;47.154;27.614;2023-05-16T11:58:35;13.70;;;13.00;;
34737;SDS011;39910;47.154;27.614;2023-05-16T12:01:02;13.57;;;12.88;;
34737;SDS011;39910;47.154;27.614;2023-05-16T12:03:28;13.65;;;12.95;;
34737;SDS011;39910;47.154;27.614;2023-05-16T12:05:57;14.00;;;13.30;;
34737;SDS011;39910;47.154;27.614;2023-05-16T12:08:23;13.88;;;13.18;;
34737;SDS011;39910;47.154;27.614;2023-05-16T12:10:51;14.15;;;13.45;;
34737;SDS011;39910;47.154;27.614;2023-05-16T12:13:21;13.20;;;12.60;;
34737;SDS011;39910;47.154;27.614;2023-05-16T12:15:47;13.80;;;13.10;;
34737;SDS011;39910;47.154;27.614;2023-05-16T12:18:13;13.50;;;12.80;;
34737;SDS011;39910;47.154;27.614;2023-05-16T12:20:38;13.57;;;12.88;;
34737;SDS011;39910;47.154;27.614;2023-05-16T12:23:04;14.02;;;13.32;;
34737;SDS011;39910;47.154;27.614;2023-05-16T12:27:56;14.77;;;14.00;;
34737;SDS011;39910;47.154;27.614;2023-05-16T12:30:22;12.52;;;11.93;;
34737;SDS011;39910;47.154;27.614;2023-05-16T12:32:55;13.75;;;13.05;;
34737;SDS011;39910;47.154;27.614;2023-05-16T12:35:21;13.73;;;13.02;;
34737;SDS011;39910;47.154;27.614;2023-05-16T12:37:47;13.65;;;12.95;;
34737;SDS011;39910;47.154;27.614;2023-05-16T12:40:13;13.98;;;13.27;;
34737;SDS011;39910;47.154;27.614;2023-05-16T12:42:39;13.50;;;12.80;;
34737;SDS011;39910;47.154;27.614;2023-05-16T12:45:04;13.65;;;12.95;;
34737;SDS011;39910;47.154;27.614;2023-05-16T12:47:36;13.77;;;13.07;;
34737;SDS011;39910;47.154;27.614;2023-05-16T12:50:02;13.43;;;12.73;;
34737;SDS011;39910;47.154;27.614;2023-05-16T12:52:32;13.63;;;12.93;;
34737;SDS011;39910;47.154;27.614;2023-05-16T12:54:58;13.43;;;12.75;;
34737;SDS011;39910;47.154;27.614;2023-05-16T12:57:25;13.93;;;13.23;;
34737;SDS011;39910;47.154;27.614;2023-05-16T12:59:50;14.10;;;13.40;;
34737;SDS011;39910;47.154;27.614;2023-05-16T13:02:15;13.47;;;12.77;;
34737;SDS011;39910;47.154;27.614;2023-05-16T13:04:42;13.15;;;12.55;;
34737;SDS011;39910;47.154;27.614;2023-05-16T13:07:08;13.63;;;12.93;;
34737;SDS011;39910;47.154;27.614;2023-05-16T13:09:33;13.85;;;13.15;;
34737;SDS011;39910;47.154;27.614;2023-05-16T13:11:58;13.18;;;12.55;;
34737;SDS011;39910;47.154;27.614;2023-05-16T13:14:24;13.13;;;12.52;;
34737;SDS011;39910;47.154;27.614;2023-05-16T13:16:50;13.20;;;12.60;;
34737;SDS011;39910;47.154;27.614;2023-05-16T13:19:15;13.70;;;13.00;;
34737;SDS011;39910;47.154;27.614;2023-05-16T13:21:40;14.75;;;13.95;;
34737;SDS011;39910;47.154;27.614;2023-05-16T13:24:06;13.35;;;12.65;;
34737;SDS011;39910;47.154;27.614;2023-05-16T13:26:31;13.32;;;12.65;;
34737;SDS011;39910;47.154;27.614;2023-05-16T13:28:56;12.90;;;12.30;;
34737;SDS011;39910;47.154;27.614;2023-05-16T13:31:23;13.45;;;12.75;;
34737;SDS011;39910;47.154;27.614;2023-05-16T13:33:48;13.55;;;12.85;;
34737;SDS011;39910;47.154;27.614;2023-05-16T13:36:13;12.85;;;12.25;;
34737;SDS011;39910;47.154;27.614;2023-05-16T13:38:39;13.38;;;12.68;;
34737;SDS011;39910;47.154;27.614;2023-05-16T13:41:05;12.95;;;12.35;;
34737;SDS011;39910;47.154;27.614;2023-05-16T13:43:30;13.52;;;12.82;;
34737;SDS011;39910;47.154;27.614;2023-05-16T13:45:56;13.88;;;13.18;;
34737;SDS011;39910;47.154;27.614;2023-05-16T13:48:22;13.55;;;12.85;;
34737;SDS011;39910;47.154;27.614;2023-05-16T13:50:47;13.45;;;12.75;;
34737;SDS011;39910;47.154;27.614;2023-05-16T13:53:12;13.68;;;12.98;;
34737;SDS011;39910;47.154;27.614;2023-05-16T13:55:37;13.82;;;13.13;;
34737;SDS011;39910;47.154;27.614;2023-05-16T13:58:03;13.45;;;12.75;;
34737;SDS011;39910;47.154;27.614;2023-05-16T14:00:28;13.52;;;12.82;;
34737;SDS011;39910;47.154;27.614;2023-05-16T14:02:53;12.75;;;12.15;;
34737;SDS011;39910;47.154;27.614;2023-05-16T14:05:19;13.30;;;12.60;;
34737;SDS011;39910;47.154;27.614;2023-05-16T14:07:44;14.02;;;13.32;;
34737;SDS011;39910;47.154;27.614;2023-05-16T14:10:10;12.48;;;11.88;;
34737;SDS011;39910;47.154;27.614;2023-05-16T14:12:35;13.48;;;12.77;;
34737;SDS011;39910;47.154;27.614;2023-05-16T14:15:02;12.90;;;12.30;;
34737;SDS011;39910;47.154;27.614;2023-05-16T14:17:27;13.38;;;12.68;;
34737;SDS011;39910;47.154;27.614;2023-05-16T14:19:52;14.02;;;13.32;;
34737;SDS011;39910;47.154;27.614;2023-05-16T14:22:18;13.75;;;13.05;;
34737;SDS011;39910;47.154;27.614;2023-05-16T14:24:43;14.10;;;13.40;;
34737;SDS011;39910;47.154;27.614;2023-05-16T14:27:08;13.75;;;13.05;;
34737;SDS011;39910;47.154;27.614;2023-05-16T14:29:34;14.00;;;13.30;;
34737;SDS011;39910;47.154;27.614;2023-05-16T14:31:59;14.02;;;13.32;;